RYR63RY EGSS-EDFH
Flight info
| Callsign | RYR63RY |
|---|---|
| Flight time | 0h 59m |
| Altitude | 37000 |
| Route | CLN M84 KONAN UL607 SPI Q50 ARCKY L607 EMGOD |
| Aircraft | B738/M-SDE2E3FGHIRWXY/LB1 |
Departure
| Time | 2026-05-07 19:13 |
|---|---|
| Airport | London Stansted Airport (EGSS) |
Arrival
| Time | 2026-05-07 20:12 |
|---|---|
| Airport | Frankfurt-Hahn Airport (EDFH) |
| Time | Latitude | Longitude | Altitude | Speed | Heading |
|---|---|---|---|---|---|
| 2026-05-07 18:36 | 51.89374 | 0.25997 | 358 ft | 0 kts | 223° |
| 2026-05-07 19:00 | 51.89392 | 0.26024 | 361 ft | 4 kts | 223° |
| 2026-05-07 19:01 | 51.89407 | 0.26046 | 360 ft | 4 kts | 249° |
| 2026-05-07 19:01 | 51.89404 | 0.26078 | 360 ft | 3 kts | 313° |
| 2026-05-07 19:01 | 51.89391 | 0.26102 | 361 ft | 0 kts | 313° |
| 2026-05-07 19:04 | 51.89392 | 0.26099 | 361 ft | 3 kts | 313° |
| 2026-05-07 19:04 | 51.89453 | 0.25992 | 351 ft | 20 kts | 313° |
| 2026-05-07 19:04 | 51.89525 | 0.25838 | 357 ft | 14 kts | 270° |
| 2026-05-07 19:05 | 51.89467 | 0.25715 | 353 ft | 16 kts | 223° |
| 2026-05-07 19:05 | 51.89375 | 0.25577 | 351 ft | 19 kts | 223° |
| 2026-05-07 19:05 | 51.89282 | 0.25437 | 355 ft | 18 kts | 223° |
| 2026-05-07 19:05 | 51.89185 | 0.25291 | 354 ft | 22 kts | 222° |
| 2026-05-07 19:06 | 51.89052 | 0.25091 | 358 ft | 29 kts | 223° |
| 2026-05-07 19:06 | 51.88773 | 0.24674 | 352 ft | 25 kts | 223° |
| 2026-05-07 19:06 | 51.88647 | 0.24483 | 351 ft | 24 kts | 223° |
| 2026-05-07 19:07 | 51.88528 | 0.24305 | 352 ft | 23 kts | 223° |
| 2026-05-07 19:07 | 51.88414 | 0.24133 | 349 ft | 22 kts | 222° |
| 2026-05-07 19:07 | 51.88304 | 0.23967 | 345 ft | 21 kts | 222° |
| 2026-05-07 19:07 | 51.88195 | 0.23805 | 342 ft | 22 kts | 223° |
| 2026-05-07 19:08 | 51.88083 | 0.23638 | 338 ft | 22 kts | 223° |
| 2026-05-07 19:08 | 51.87974 | 0.23474 | 340 ft | 21 kts | 223° |
| 2026-05-07 19:08 | 51.87869 | 0.23315 | 338 ft | 20 kts | 223° |
| 2026-05-07 19:08 | 51.87766 | 0.23161 | 339 ft | 20 kts | 223° |
| 2026-05-07 19:09 | 51.87760 | 0.22982 | 336 ft | 18 kts | 308° |
| 2026-05-07 19:09 | 51.87848 | 0.22832 | 335 ft | 19 kts | 313° |
| 2026-05-07 19:09 | 51.87869 | 0.22794 | 332 ft | 0 kts | 313° |
| 2026-05-07 19:11 | 51.87879 | 0.22777 | 331 ft | 7 kts | 313° |
| 2026-05-07 19:11 | 51.87938 | 0.22674 | 331 ft | 10 kts | 313° |
| 2026-05-07 19:11 | 51.87958 | 0.22669 | 331 ft | 2 kts | 27° |
| 2026-05-07 19:11 | 51.87964 | 0.22677 | 331 ft | 0 kts | 41° |
| 2026-05-07 19:12 | 51.88004 | 0.22734 | 328 ft | 33 kts | 41° |
| 2026-05-07 19:13 | 51.88360 | 0.23270 | 336 ft | 104 kts | 43° |
| 2026-05-07 19:13 | 51.89047 | 0.24276 | 383 ft | 156 kts | 45° |
| 2026-05-07 19:13 | 51.89891 | 0.25464 | 1013 ft | 159 kts | 45° |
| 2026-05-07 19:13 | 51.90697 | 0.26685 | 1742 ft | 162 kts | 51° |
| 2026-05-07 19:14 | 51.91338 | 0.28223 | 2295 ft | 172 kts | 70° |
| 2026-05-07 19:14 | 51.91657 | 0.30251 | 2604 ft | 201 kts | 91° |
| 2026-05-07 19:14 | 51.91441 | 0.32577 | 2839 ft | 219 kts | 115° |
| 2026-05-07 19:14 | 51.90735 | 0.34869 | 3116 ft | 240 kts | 118° |
| 2026-05-07 19:15 | 51.89965 | 0.37396 | 3564 ft | 257 kts | 117° |
| 2026-05-07 19:15 | 51.89180 | 0.40033 | 3971 ft | 263 kts | 117° |
| 2026-05-07 19:15 | 51.88398 | 0.42676 | 3996 ft | 264 kts | 117° |
| 2026-05-07 19:15 | 51.87610 | 0.45353 | 3996 ft | 263 kts | 117° |
| 2026-05-07 19:16 | 51.86822 | 0.48037 | 4003 ft | 264 kts | 117° |
| 2026-05-07 19:16 | 51.86034 | 0.50724 | 4047 ft | 267 kts | 116° |
| 2026-05-07 19:16 | 51.85225 | 0.53476 | 4672 ft | 271 kts | 116° |
| 2026-05-07 19:16 | 51.84413 | 0.56238 | 5552 ft | 273 kts | 116° |
| 2026-05-07 19:17 | 51.83608 | 0.59016 | 5908 ft | 269 kts | 113° |
| 2026-05-07 19:17 | 51.83082 | 0.61963 | 6003 ft | 280 kts | 99° |
| 2026-05-07 19:17 | 51.82948 | 0.65074 | 6002 ft | 280 kts | 88° |
| 2026-05-07 19:17 | 51.83063 | 0.68194 | 6004 ft | 277 kts | 85° |
| 2026-05-07 19:18 | 51.83204 | 0.71322 | 6330 ft | 280 kts | 85° |
| 2026-05-07 19:18 | 51.83347 | 0.74486 | 7104 ft | 284 kts | 86° |
| 2026-05-07 19:18 | 51.83476 | 0.77653 | 8033 ft | 284 kts | 87° |
| 2026-05-07 19:18 | 51.83600 | 0.80840 | 8896 ft | 287 kts | 88° |
| 2026-05-07 19:19 | 51.83719 | 0.84085 | 9706 ft | 290 kts | 88° |
| 2026-05-07 19:19 | 51.83838 | 0.87365 | 10475 ft | 295 kts | 89° |
| 2026-05-07 19:19 | 51.83958 | 0.90766 | 10876 ft | 312 kts | 89° |
| 2026-05-07 19:19 | 51.84086 | 0.94385 | 11081 ft | 334 kts | 89° |
| 2026-05-07 19:20 | 51.84221 | 0.98165 | 11070 ft | 338 kts | 88° |
| 2026-05-07 19:20 | 51.84357 | 1.01972 | 11079 ft | 338 kts | 88° |
| 2026-05-07 19:20 | 51.84490 | 1.05770 | 11078 ft | 339 kts | 88° |
| 2026-05-07 19:20 | 51.84616 | 1.09574 | 11115 ft | 339 kts | 91° |
| 2026-05-07 19:21 | 51.84220 | 1.13310 | 11670 ft | 340 kts | 114° |
| 2026-05-07 19:21 | 51.82973 | 1.16521 | 12534 ft | 337 kts | 134° |
| 2026-05-07 19:21 | 51.81168 | 1.18903 | 12980 ft | 336 kts | 147° |
| 2026-05-07 19:21 | 51.79206 | 1.20970 | 13062 ft | 337 kts | 149° |
| 2026-05-07 19:22 | 51.77224 | 1.23002 | 13076 ft | 337 kts | 149° |
| 2026-05-07 19:22 | 51.75225 | 1.25057 | 13296 ft | 343 kts | 149° |
| 2026-05-07 19:22 | 51.73229 | 1.27130 | 14134 ft | 344 kts | 148° |
| 2026-05-07 19:22 | 51.71220 | 1.29236 | 14967 ft | 346 kts | 149° |
| 2026-05-07 19:23 | 51.69190 | 1.31370 | 15702 ft | 351 kts | 149° |
| 2026-05-07 19:23 | 51.67133 | 1.33527 | 16407 ft | 356 kts | 150° |
| 2026-05-07 19:23 | 51.64904 | 1.35307 | 17107 ft | 359 kts | 162° |
| 2026-05-07 19:23 | 51.62478 | 1.36322 | 17841 ft | 361 kts | 173° |
| 2026-05-07 19:24 | 51.59993 | 1.36625 | 18533 ft | 364 kts | 180° |
| 2026-05-07 19:24 | 51.57444 | 1.36736 | 19164 ft | 368 kts | 180° |
| 2026-05-07 19:24 | 51.54873 | 1.36834 | 19802 ft | 372 kts | 180° |
| 2026-05-07 19:24 | 51.52276 | 1.36959 | 20050 ft | 374 kts | 180° |
| 2026-05-07 19:25 | 51.49675 | 1.37110 | 20069 ft | 374 kts | 180° |
| 2026-05-07 19:25 | 51.47067 | 1.37271 | 20075 ft | 374 kts | 179° |
| 2026-05-07 19:25 | 51.44501 | 1.38020 | 20064 ft | 378 kts | 160° |
| 2026-05-07 19:25 | 51.42234 | 1.40175 | 20080 ft | 382 kts | 141° |
| 2026-05-07 19:26 | 51.40450 | 1.43344 | 20090 ft | 385 kts | 130° |
| 2026-05-07 19:26 | 51.38836 | 1.46715 | 20073 ft | 386 kts | 129° |
| 2026-05-07 19:26 | 51.37212 | 1.50175 | 20256 ft | 392 kts | 128° |
| 2026-05-07 19:26 | 51.35561 | 1.53686 | 20878 ft | 395 kts | 129° |
| 2026-05-07 19:27 | 51.33903 | 1.57183 | 21632 ft | 395 kts | 129° |
| 2026-05-07 19:27 | 51.32221 | 1.60701 | 22263 ft | 398 kts | 129° |
| 2026-05-07 19:27 | 51.30521 | 1.64231 | 22855 ft | 402 kts | 129° |
| 2026-05-07 19:27 | 51.28802 | 1.67787 | 23062 ft | 406 kts | 130° |
| 2026-05-07 19:28 | 51.27657 | 1.70150 | 23060 ft | 405 kts | 130° |
| 2026-05-07 19:28 | 51.25935 | 1.73698 | 23074 ft | 405 kts | 130° |
| 2026-05-07 19:28 | 51.24199 | 1.77269 | 23186 ft | 411 kts | 130° |
| 2026-05-07 19:28 | 51.21863 | 1.82068 | 23937 ft | 413 kts | 130° |
| 2026-05-07 19:29 | 51.20668 | 1.84520 | 24232 ft | 415 kts | 130° |
| 2026-05-07 19:29 | 51.18891 | 1.88165 | 24794 ft | 416 kts | 130° |
| 2026-05-07 19:29 | 51.17131 | 1.91768 | 25066 ft | 420 kts | 130° |
| 2026-05-07 19:29 | 51.15342 | 1.95456 | 25062 ft | 420 kts | 127° |
| 2026-05-07 19:30 | 51.13868 | 1.99494 | 25074 ft | 421 kts | 117° |
| 2026-05-07 19:30 | 51.12789 | 2.03837 | 25072 ft | 424 kts | 108° |
| 2026-05-07 19:30 | 51.12054 | 2.08394 | 25084 ft | 425 kts | 104° |
| 2026-05-07 19:30 | 51.11378 | 2.13012 | 25227 ft | 432 kts | 104° |
| 2026-05-07 19:31 | 51.10712 | 2.17684 | 25768 ft | 432 kts | 104° |
| 2026-05-07 19:31 | 51.10043 | 2.22356 | 26071 ft | 433 kts | 104° |
| 2026-05-07 19:31 | 51.09366 | 2.27011 | 26062 ft | 430 kts | 104° |
| 2026-05-07 19:31 | 51.08680 | 2.31657 | 26070 ft | 431 kts | 104° |
| 2026-05-07 19:32 | 51.07984 | 2.36300 | 26090 ft | 431 kts | 105° |
| 2026-05-07 19:32 | 51.07292 | 2.40882 | 26074 ft | 432 kts | 105° |
| 2026-05-07 19:32 | 51.06584 | 2.45535 | 26075 ft | 433 kts | 105° |
| 2026-05-07 19:32 | 51.05872 | 2.50196 | 26078 ft | 433 kts | 105° |
| 2026-05-07 19:33 | 51.05159 | 2.54850 | 26074 ft | 433 kts | 105° |
| 2026-05-07 19:33 | 51.04444 | 2.59508 | 26073 ft | 432 kts | 105° |
| 2026-05-07 19:33 | 51.03728 | 2.64157 | 26077 ft | 432 kts | 105° |
| 2026-05-07 19:33 | 51.03020 | 2.68743 | 26094 ft | 433 kts | 105° |
| 2026-05-07 19:34 | 51.02294 | 2.73426 | 26321 ft | 438 kts | 105° |
| 2026-05-07 19:34 | 51.01563 | 2.78131 | 26901 ft | 437 kts | 105° |
| 2026-05-07 19:34 | 51.00835 | 2.82808 | 27598 ft | 434 kts | 105° |
| 2026-05-07 19:34 | 51.00110 | 2.87453 | 28276 ft | 431 kts | 105° |
| 2026-05-07 19:35 | 50.99388 | 2.92062 | 28937 ft | 429 kts | 105° |
| 2026-05-07 19:35 | 50.98667 | 2.96653 | 29528 ft | 429 kts | 105° |
| 2026-05-07 19:35 | 50.97944 | 3.01246 | 30079 ft | 429 kts | 105° |
| 2026-05-07 19:35 | 50.97219 | 3.05835 | 30572 ft | 428 kts | 105° |
| 2026-05-07 19:36 | 50.96501 | 3.10364 | 31070 ft | 427 kts | 105° |
| 2026-05-07 19:36 | 50.95775 | 3.14935 | 31556 ft | 426 kts | 105° |
| 2026-05-07 19:36 | 50.95049 | 3.19493 | 32017 ft | 425 kts | 105° |
| 2026-05-07 19:36 | 50.94323 | 3.24041 | 32478 ft | 425 kts | 105° |
| 2026-05-07 19:37 | 50.93595 | 3.28583 | 32941 ft | 424 kts | 105° |
| 2026-05-07 19:37 | 50.92867 | 3.33120 | 33396 ft | 423 kts | 105° |
| 2026-05-07 19:37 | 50.92149 | 3.37578 | 33841 ft | 422 kts | 105° |
| 2026-05-07 19:37 | 50.91420 | 3.42089 | 34235 ft | 422 kts | 106° |
| 2026-05-07 19:38 | 50.90689 | 3.46608 | 34423 ft | 427 kts | 106° |
| 2026-05-07 19:38 | 50.89943 | 3.51194 | 34680 ft | 427 kts | 106° |
| 2026-05-07 19:38 | 50.89205 | 3.55733 | 35178 ft | 423 kts | 106° |
| 2026-05-07 19:38 | 50.88482 | 3.60167 | 35642 ft | 418 kts | 106° |
| 2026-05-07 19:39 | 50.87756 | 3.64605 | 36123 ft | 413 kts | 106° |
| 2026-05-07 19:39 | 50.87039 | 3.68980 | 36631 ft | 407 kts | 106° |
| 2026-05-07 19:39 | 50.86329 | 3.73299 | 37070 ft | 404 kts | 106° |
| 2026-05-07 19:39 | 50.85613 | 3.77638 | 37041 ft | 411 kts | 106° |
| 2026-05-07 19:40 | 50.84139 | 3.86523 | 37086 ft | 423 kts | 106° |
| 2026-05-07 19:40 | 50.83383 | 3.91070 | 36956 ft | 433 kts | 106° |
| 2026-05-07 19:40 | 50.82605 | 3.95723 | 36439 ft | 451 kts | 106° |
| 2026-05-07 19:41 | 50.81796 | 4.00562 | 35909 ft | 456 kts | 106° |
| 2026-05-07 19:41 | 50.80985 | 4.05409 | 35311 ft | 456 kts | 106° |
| 2026-05-07 19:41 | 50.80173 | 4.10250 | 34934 ft | 451 kts | 106° |
| 2026-05-07 19:41 | 50.79376 | 4.14995 | 34695 ft | 444 kts | 106° |
| 2026-05-07 19:42 | 50.78588 | 4.19667 | 34443 ft | 437 kts | 106° |
| 2026-05-07 19:42 | 50.77808 | 4.24275 | 34208 ft | 430 kts | 106° |
| 2026-05-07 19:42 | 50.77037 | 4.28813 | 33932 ft | 423 kts | 106° |
| 2026-05-07 19:42 | 50.76276 | 4.33280 | 33567 ft | 421 kts | 106° |
| 2026-05-07 19:43 | 50.75506 | 4.37785 | 32810 ft | 428 kts | 106° |
| 2026-05-07 19:43 | 50.74726 | 4.42334 | 32139 ft | 431 kts | 106° |
| 2026-05-07 19:43 | 50.73938 | 4.46917 | 31477 ft | 434 kts | 107° |
| 2026-05-07 19:43 | 50.73144 | 4.51535 | 30833 ft | 437 kts | 107° |
| 2026-05-07 19:44 | 50.72354 | 4.56110 | 30205 ft | 439 kts | 107° |
| 2026-05-07 19:44 | 50.71549 | 4.60763 | 29474 ft | 440 kts | 107° |
| 2026-05-07 19:44 | 50.70740 | 4.65434 | 28803 ft | 440 kts | 107° |
| 2026-05-07 19:44 | 50.69939 | 4.70044 | 28557 ft | 429 kts | 107° |
| 2026-05-07 19:45 | 50.69155 | 4.74548 | 28252 ft | 421 kts | 107° |
| 2026-05-07 19:45 | 50.68383 | 4.78968 | 27972 ft | 413 kts | 107° |
| 2026-05-07 19:45 | 50.67634 | 4.83244 | 27701 ft | 406 kts | 107° |
| 2026-05-07 19:45 | 50.66887 | 4.87502 | 27424 ft | 399 kts | 107° |
| 2026-05-07 19:46 | 50.66150 | 4.91687 | 27150 ft | 392 kts | 107° |
| 2026-05-07 19:46 | 50.65369 | 4.95783 | 26882 ft | 386 kts | 109° |
| 2026-05-07 19:46 | 50.64551 | 4.99776 | 26616 ft | 380 kts | 110° |
| 2026-05-07 19:46 | 50.63739 | 5.03661 | 26356 ft | 374 kts | 110° |
| 2026-05-07 19:47 | 50.62929 | 5.07525 | 26104 ft | 370 kts | 110° |
| 2026-05-07 19:47 | 50.62128 | 5.11370 | 25846 ft | 367 kts | 110° |
| 2026-05-07 19:47 | 50.61338 | 5.15178 | 25593 ft | 363 kts | 109° |
| 2026-05-07 19:47 | 50.60558 | 5.18942 | 25342 ft | 360 kts | 109° |
| 2026-05-07 19:48 | 50.59781 | 5.22698 | 25099 ft | 362 kts | 109° |
| 2026-05-07 19:48 | 50.58998 | 5.26482 | 24871 ft | 365 kts | 109° |
| 2026-05-07 19:48 | 50.58212 | 5.30274 | 24630 ft | 363 kts | 109° |
| 2026-05-07 19:48 | 50.57429 | 5.34045 | 24322 ft | 361 kts | 109° |
| 2026-05-07 19:49 | 50.56650 | 5.37795 | 23964 ft | 360 kts | 110° |
| 2026-05-07 19:49 | 50.55880 | 5.41492 | 23597 ft | 359 kts | 110° |
| 2026-05-07 19:49 | 50.55103 | 5.45218 | 23222 ft | 357 kts | 110° |
| 2026-05-07 19:49 | 50.54331 | 5.48912 | 22866 ft | 355 kts | 110° |
| 2026-05-07 19:50 | 50.53562 | 5.52587 | 22508 ft | 352 kts | 110° |
| 2026-05-07 19:50 | 50.52798 | 5.56230 | 22150 ft | 350 kts | 110° |
| 2026-05-07 19:50 | 50.52036 | 5.59851 | 21803 ft | 348 kts | 110° |
| 2026-05-07 19:50 | 50.51131 | 5.63350 | 21433 ft | 345 kts | 120° |
| 2026-05-07 19:51 | 50.49851 | 5.66514 | 21091 ft | 342 kts | 126° |
| 2026-05-07 19:51 | 50.48507 | 5.69585 | 20749 ft | 340 kts | 126° |
| 2026-05-07 19:51 | 50.47175 | 5.72652 | 20418 ft | 338 kts | 126° |
| 2026-05-07 19:51 | 50.45866 | 5.75710 | 20083 ft | 337 kts | 125° |
| 2026-05-07 19:52 | 50.44568 | 5.78759 | 19761 ft | 335 kts | 125° |
| 2026-05-07 19:52 | 50.43295 | 5.81760 | 19451 ft | 333 kts | 125° |
| 2026-05-07 19:52 | 50.42018 | 5.84771 | 19195 ft | 330 kts | 125° |
| 2026-05-07 19:52 | 50.40753 | 5.87754 | 18962 ft | 328 kts | 125° |
| 2026-05-07 19:53 | 50.39488 | 5.90732 | 18715 ft | 328 kts | 124° |
| 2026-05-07 19:53 | 50.38488 | 5.93958 | 18456 ft | 330 kts | 106° |
| 2026-05-07 19:53 | 50.38100 | 5.97508 | 18226 ft | 330 kts | 97° |
| 2026-05-07 19:53 | 50.37847 | 6.01100 | 17950 ft | 330 kts | 96° |
| 2026-05-07 19:54 | 50.37612 | 6.04628 | 17683 ft | 330 kts | 96° |
| 2026-05-07 19:54 | 50.37367 | 6.08202 | 17417 ft | 330 kts | 97° |
| 2026-05-07 19:54 | 50.37114 | 6.11767 | 17151 ft | 329 kts | 97° |
| 2026-05-07 19:54 | 50.36852 | 6.15334 | 16891 ft | 328 kts | 97° |
| 2026-05-07 19:55 | 50.36585 | 6.18882 | 16632 ft | 327 kts | 97° |
| 2026-05-07 19:55 | 50.36315 | 6.22406 | 16367 ft | 323 kts | 97° |
| 2026-05-07 19:55 | 50.36045 | 6.25883 | 16109 ft | 320 kts | 98° |
| 2026-05-07 19:55 | 50.35780 | 6.29277 | 15853 ft | 316 kts | 98° |
| 2026-05-07 19:56 | 50.35511 | 6.32687 | 15611 ft | 314 kts | 98° |
| 2026-05-07 19:56 | 50.35243 | 6.36064 | 15343 ft | 311 kts | 98° |
| 2026-05-07 19:56 | 50.34976 | 6.39422 | 15094 ft | 309 kts | 98° |
| 2026-05-07 19:56 | 50.34709 | 6.42758 | 14847 ft | 308 kts | 98° |
| 2026-05-07 19:57 | 50.34441 | 6.46086 | 14608 ft | 306 kts | 98° |
| 2026-05-07 19:57 | 50.34178 | 6.49352 | 14355 ft | 305 kts | 98° |
| 2026-05-07 19:57 | 50.33911 | 6.52647 | 14106 ft | 304 kts | 98° |
| 2026-05-07 19:57 | 50.33644 | 6.55938 | 13876 ft | 304 kts | 98° |
| 2026-05-07 19:58 | 50.33377 | 6.59217 | 13604 ft | 303 kts | 98° |
| 2026-05-07 19:58 | 50.33108 | 6.62494 | 13346 ft | 303 kts | 98° |
| 2026-05-07 19:58 | 50.32839 | 6.65767 | 13076 ft | 303 kts | 98° |
| 2026-05-07 19:58 | 50.32570 | 6.69034 | 12818 ft | 302 kts | 98° |
| 2026-05-07 19:59 | 50.32303 | 6.72265 | 12560 ft | 302 kts | 98° |
| 2026-05-07 19:59 | 50.32033 | 6.75522 | 12304 ft | 302 kts | 98° |
| 2026-05-07 19:59 | 50.31762 | 6.78784 | 12047 ft | 301 kts | 98° |
| 2026-05-07 19:59 | 50.31490 | 6.82028 | 11795 ft | 300 kts | 98° |
| 2026-05-07 20:00 | 50.31218 | 6.85275 | 11531 ft | 300 kts | 98° |
| 2026-05-07 20:00 | 50.30947 | 6.88501 | 11295 ft | 299 kts | 98° |
| 2026-05-07 20:00 | 50.30675 | 6.91721 | 11038 ft | 298 kts | 98° |
| 2026-05-07 20:00 | 50.30404 | 6.94920 | 10792 ft | 296 kts | 98° |
| 2026-05-07 20:01 | 50.30137 | 6.98068 | 10551 ft | 295 kts | 98° |
| 2026-05-07 20:01 | 50.29867 | 7.01235 | 10319 ft | 293 kts | 98° |
| 2026-05-07 20:01 | 50.29598 | 7.04377 | 10066 ft | 291 kts | 98° |
| 2026-05-07 20:01 | 50.29331 | 7.07497 | 9806 ft | 288 kts | 98° |
| 2026-05-07 20:02 | 50.29064 | 7.10593 | 9535 ft | 285 kts | 98° |
| 2026-05-07 20:02 | 50.28800 | 7.13655 | 9266 ft | 283 kts | 98° |
| 2026-05-07 20:02 | 50.28538 | 7.16689 | 8997 ft | 280 kts | 98° |
| 2026-05-07 20:02 | 50.28277 | 7.19688 | 8730 ft | 277 kts | 98° |
| 2026-05-07 20:03 | 50.28018 | 7.22663 | 8467 ft | 275 kts | 98° |
| 2026-05-07 20:03 | 50.27761 | 7.25608 | 8203 ft | 273 kts | 98° |
| 2026-05-07 20:03 | 50.27504 | 7.28541 | 7949 ft | 270 kts | 98° |
| 2026-05-07 20:03 | 50.27249 | 7.31450 | 7693 ft | 268 kts | 98° |
| 2026-05-07 20:04 | 50.26995 | 7.34335 | 7443 ft | 266 kts | 98° |
| 2026-05-07 20:04 | 50.26744 | 7.37162 | 7190 ft | 265 kts | 98° |
| 2026-05-07 20:04 | 50.26491 | 7.40013 | 6940 ft | 263 kts | 98° |
| 2026-05-07 20:04 | 50.26089 | 7.42790 | 6668 ft | 262 kts | 116° |
| 2026-05-07 20:05 | 50.25139 | 7.45162 | 6438 ft | 253 kts | 124° |
| 2026-05-07 20:05 | 50.24188 | 7.47414 | 6201 ft | 241 kts | 123° |
| 2026-05-07 20:05 | 50.23294 | 7.49544 | 5950 ft | 228 kts | 126° |
| 2026-05-07 20:05 | 50.22123 | 7.51049 | 5643 ft | 214 kts | 163° |
| 2026-05-07 20:06 | 50.20718 | 7.50962 | 5376 ft | 199 kts | 205° |
| 2026-05-07 20:06 | 50.19508 | 7.50050 | 5163 ft | 194 kts | 204° |
| 2026-05-07 20:06 | 50.18246 | 7.49221 | 5123 ft | 200 kts | 207° |
| 2026-05-07 20:06 | 50.17021 | 7.48192 | 5007 ft | 198 kts | 211° |
| 2026-05-07 20:07 | 50.15856 | 7.47095 | 4983 ft | 193 kts | 212° |
| 2026-05-07 20:07 | 50.14723 | 7.45993 | 4982 ft | 192 kts | 212° |
| 2026-05-07 20:07 | 50.13585 | 7.44873 | 4992 ft | 195 kts | 213° |
| 2026-05-07 20:07 | 50.12431 | 7.43734 | 4995 ft | 197 kts | 213° |
| 2026-05-07 20:08 | 50.11274 | 7.42593 | 4985 ft | 196 kts | 213° |
| 2026-05-07 20:08 | 50.10121 | 7.41456 | 4941 ft | 196 kts | 213° |
| 2026-05-07 20:08 | 50.08982 | 7.40331 | 4714 ft | 191 kts | 213° |
| 2026-05-07 20:08 | 50.07870 | 7.39233 | 4454 ft | 187 kts | 212° |
| 2026-05-07 20:09 | 50.06800 | 7.38177 | 4218 ft | 182 kts | 212° |
| 2026-05-07 20:09 | 50.05738 | 7.37129 | 3966 ft | 178 kts | 212° |
| 2026-05-07 20:09 | 50.04698 | 7.36102 | 3722 ft | 174 kts | 212° |
| 2026-05-07 20:10 | 50.02809 | 7.34236 | 3306 ft | 153 kts | 212° |
| 2026-05-07 20:10 | 50.01904 | 7.33342 | 3098 ft | 155 kts | 212° |
| 2026-05-07 20:10 | 50.00987 | 7.32435 | 2884 ft | 156 kts | 212° |
| 2026-05-07 20:10 | 50.00071 | 7.31531 | 2668 ft | 155 kts | 211° |
| 2026-05-07 20:11 | 49.99163 | 7.30633 | 2444 ft | 153 kts | 212° |
| 2026-05-07 20:11 | 49.98270 | 7.29751 | 2228 ft | 152 kts | 212° |
| 2026-05-07 20:11 | 49.97382 | 7.28874 | 2016 ft | 150 kts | 211° |
| 2026-05-07 20:11 | 49.96502 | 7.28002 | 1798 ft | 149 kts | 212° |
| 2026-05-07 20:12 | 49.95656 | 7.27168 | 1614 ft | 139 kts | 212° |
| 2026-05-07 20:12 | 49.94956 | 7.26474 | 1614 ft | 92 kts | 212° |
| 2026-05-07 20:12 | 49.94632 | 7.26156 | 1620 ft | 33 kts | 212° |
| 2026-05-07 20:12 | 49.94535 | 7.26213 | 1626 ft | 15 kts | 119° |
| 2026-05-07 20:13 | 49.94481 | 7.26348 | 1624 ft | 12 kts | 124° |
| 2026-05-07 20:13 | 49.94437 | 7.26460 | 1628 ft | 12 kts | 107° |
| 2026-05-07 20:13 | 49.94486 | 7.26558 | 1620 ft | 13 kts | 33° |
| 2026-05-07 20:13 | 49.94559 | 7.26632 | 1622 ft | 13 kts | 25° |
| 2026-05-07 20:14 | 49.94631 | 7.26634 | 1622 ft | 11 kts | 30° |
| 2026-05-07 20:14 | 49.94707 | 7.26708 | 1617 ft | 15 kts | 32° |
| 2026-05-07 20:14 | 49.94714 | 7.26787 | 1618 ft | 7 kts | 130° |
| 2026-05-07 20:14 | 49.94693 | 7.26830 | 1619 ft | 7 kts | 125° |
| 2026-05-07 20:15 | 49.94669 | 7.26835 | 1620 ft | 2 kts | 219° |
| 2026-05-07 20:15 | 49.94650 | 7.26813 | 1616 ft | 4 kts | 214° |
| 2026-05-07 20:15 | 49.94644 | 7.26806 | 1616 ft | 1 kts | 213° |
| 2026-05-07 20:15 | 49.94643 | 7.26806 | 1616 ft | 0 kts | 213° |